sensor_id;sensor_type;location;lat;lon;timestamp;temperature;humidity
21646;DHT22;10984;45.712;4.800;2023-01-24T00:01:21;2.90;99.90
21646;DHT22;10984;45.712;4.800;2023-01-24T00:03:47;2.90;99.90
21646;DHT22;10984;45.712;4.800;2023-01-24T00:06:13;2.90;99.90
21646;DHT22;10984;45.712;4.800;2023-01-24T00:08:38;3.00;99.90
21646;DHT22;10984;45.712;4.800;2023-01-24T00:11:07;2.90;99.90
21646;DHT22;10984;45.712;4.800;2023-01-24T00:13:33;3.00;99.90
21646;DHT22;10984;45.712;4.800;2023-01-24T00:16:19;3.00;99.90
21646;DHT22;10984;45.712;4.800;2023-01-24T00:18:45;3.00;99.90
21646;DHT22;10984;45.712;4.800;2023-01-24T00:21:19;3.00;99.90
21646;DHT22;10984;45.712;4.800;2023-01-24T00:23:47;3.00;99.90
21646;DHT22;10984;45.712;4.800;2023-01-24T00:26:14;3.00;99.90
21646;DHT22;10984;45.712;4.800;2023-01-24T00:28:39;3.00;99.90
21646;DHT22;10984;45.712;4.800;2023-01-24T00:31:05;3.00;99.90
21646;DHT22;10984;45.712;4.800;2023-01-24T00:33:32;2.90;99.90
21646;DHT22;10984;45.712;4.800;2023-01-24T00:35:58;2.90;99.90
21646;DHT22;10984;45.712;4.800;2023-01-24T00:38:24;2.90;99.90
21646;DHT22;10984;45.712;4.800;2023-01-24T00:40:50;3.00;99.90
21646;DHT22;10984;45.712;4.800;2023-01-24T00:43:16;2.90;99.90
21646;DHT22;10984;45.712;4.800;2023-01-24T00:45:43;2.90;99.90
21646;DHT22;10984;45.712;4.800;2023-01-24T00:48:10;2.90;99.90
21646;DHT22;10984;45.712;4.800;2023-01-24T00:50:36;2.80;99.90
21646;DHT22;10984;45.712;4.800;2023-01-24T00:53:02;2.80;99.90
21646;DHT22;10984;45.712;4.800;2023-01-24T00:55:28;2.80;99.90
21646;DHT22;10984;45.712;4.800;2023-01-24T00:57:54;2.80;99.90
21646;DHT22;10984;45.712;4.800;2023-01-24T01:00:20;2.80;99.90
21646;DHT22;10984;45.712;4.800;2023-01-24T01:02:46;2.80;99.90
21646;DHT22;10984;45.712;4.800;2023-01-24T01:05:12;2.80;99.90
21646;DHT22;10984;45.712;4.800;2023-01-24T01:07:37;2.80;99.90
21646;DHT22;10984;45.712;4.800;2023-01-24T01:10:04;2.70;99.90
21646;DHT22;10984;45.712;4.800;2023-01-24T01:12:29;2.70;99.90
21646;DHT22;10984;45.712;4.800;2023-01-24T01:14:55;2.70;99.90
21646;DHT22;10984;45.712;4.800;2023-01-24T01:17:21;2.70;99.90
21646;DHT22;10984;45.712;4.800;2023-01-24T01:19:50;2.80;99.90
21646;DHT22;10984;45.712;4.800;2023-01-24T01:22:16;2.80;99.90
21646;DHT22;10984;45.712;4.800;2023-01-24T01:24:42;2.80;99.90
21646;DHT22;10984;45.712;4.800;2023-01-24T01:27:07;2.80;99.90
21646;DHT22;10984;45.712;4.800;2023-01-24T01:29:33;2.80;99.90
21646;DHT22;10984;45.712;4.800;2023-01-24T01:31:59;2.80;99.90
21646;DHT22;10984;45.712;4.800;2023-01-24T01:34:24;2.80;99.90
21646;DHT22;10984;45.712;4.800;2023-01-24T01:36:50;2.80;99.90
21646;DHT22;10984;45.712;4.800;2023-01-24T01:39:16;2.80;99.90
21646;DHT22;10984;45.712;4.800;2023-01-24T01:41:41;2.80;99.90
21646;DHT22;10984;45.712;4.800;2023-01-24T01:44:27;2.80;99.90
21646;DHT22;10984;45.712;4.800;2023-01-24T01:47:32;2.80;99.90
21646;DHT22;10984;45.712;4.800;2023-01-24T01:52:46;2.80;99.90
21646;DHT22;10984;45.712;4.800;2023-01-24T01:55:31;2.80;99.90
21646;DHT22;10984;45.712;4.800;2023-01-24T01:57:59;2.80;99.90
21646;DHT22;10984;45.712;4.800;2023-01-24T02:00:26;2.80;99.90
21646;DHT22;10984;45.712;4.800;2023-01-24T02:02:56;2.80;99.90
21646;DHT22;10984;45.712;4.800;2023-01-24T02:05:41;2.80;99.90
21646;DHT22;10984;45.712;4.800;2023-01-24T02:08:08;2.80;99.90
21646;DHT22;10984;45.712;4.800;2023-01-24T02:10:37;2.70;99.90
21646;DHT22;10984;45.712;4.800;2023-01-24T02:13:21;2.70;99.90
21646;DHT22;10984;45.712;4.800;2023-01-24T02:15:49;2.70;99.90
21646;DHT22;10984;45.712;4.800;2023-01-24T02:18:37;2.80;99.90
21646;DHT22;10984;45.712;4.800;2023-01-24T02:21:07;2.80;99.90
21646;DHT22;10984;45.712;4.800;2023-01-24T02:26:36;2.70;99.90
21646;DHT22;10984;45.712;4.800;2023-01-24T02:29:21;2.80;99.90
21646;DHT22;10984;45.712;4.800;2023-01-24T02:32:06;2.80;99.90
21646;DHT22;10984;45.712;4.800;2023-01-24T02:34:33;2.80;99.90
21646;DHT22;10984;45.712;4.800;2023-01-24T02:42:38;2.80;99.90
21646;DHT22;10984;45.712;4.800;2023-01-24T02:45:23;2.90;99.90
21646;DHT22;10984;45.712;4.800;2023-01-24T02:47:52;2.80;99.90
21646;DHT22;10984;45.712;4.800;2023-01-24T02:50:20;2.80;99.90
21646;DHT22;10984;45.712;4.800;2023-01-24T02:52:47;2.80;99.90
21646;DHT22;10984;45.712;4.800;2023-01-24T02:55:32;2.80;99.90
21646;DHT22;10984;45.712;4.800;2023-01-24T02:57:59;2.70;99.90
21646;DHT22;10984;45.712;4.800;2023-01-24T03:00:43;2.70;99.90
21646;DHT22;10984;45.712;4.800;2023-01-24T03:03:09;2.70;99.90
21646;DHT22;10984;45.712;4.800;2023-01-24T03:05:35;2.70;99.90
21646;DHT22;10984;45.712;4.800;2023-01-24T03:08:19;2.70;99.90
21646;DHT22;10984;45.712;4.800;2023-01-24T03:10:45;2.70;99.90
21646;DHT22;10984;45.712;4.800;2023-01-24T03:13:12;2.80;99.90
21646;DHT22;10984;45.712;4.800;2023-01-24T03:15:59;2.90;99.90
21646;DHT22;10984;45.712;4.800;2023-01-24T03:18:43;2.80;99.90
21646;DHT22;10984;45.712;4.800;2023-01-24T03:21:27;2.80;99.90
21646;DHT22;10984;45.712;4.800;2023-01-24T03:24:11;2.80;99.90
21646;DHT22;10984;45.712;4.800;2023-01-24T03:26:55;2.80;99.90
21646;DHT22;10984;45.712;4.800;2023-01-24T03:29:39;2.80;99.90
21646;DHT22;10984;45.712;4.800;2023-01-24T03:32:23;2.70;99.90
21646;DHT22;10984;45.712;4.800;2023-01-24T03:35:07;2.70;99.90
21646;DHT22;10984;45.712;4.800;2023-01-24T03:37:33;2.70;99.90
21646;DHT22;10984;45.712;4.800;2023-01-24T03:40:17;2.70;99.90
21646;DHT22;10984;45.712;4.800;2023-01-24T03:42:43;2.70;99.90
21646;DHT22;10984;45.712;4.800;2023-01-24T03:45:29;2.70;99.90
21646;DHT22;10984;45.712;4.800;2023-01-24T03:48:01;2.70;99.90
21646;DHT22;10984;45.712;4.800;2023-01-24T03:50:45;2.80;99.90
21646;DHT22;10984;45.712;4.800;2023-01-24T03:53:31;2.70;99.90
21646;DHT22;10984;45.712;4.800;2023-01-24T03:56:01;2.70;99.90
21646;DHT22;10984;45.712;4.800;2023-01-24T03:58:28;2.70;99.90
21646;DHT22;10984;45.712;4.800;2023-01-24T04:00:55;2.70;99.90
21646;DHT22;10984;45.712;4.800;2023-01-24T04:03:21;2.80;99.90
21646;DHT22;10984;45.712;4.800;2023-01-24T04:05:48;2.70;99.90
21646;DHT22;10984;45.712;4.800;2023-01-24T04:08:15;2.70;99.90
21646;DHT22;10984;45.712;4.800;2023-01-24T04:10:41;2.70;99.90
21646;DHT22;10984;45.712;4.800;2023-01-24T04:13:09;2.80;99.90
21646;DHT22;10984;45.712;4.800;2023-01-24T04:15:34;2.70;99.90
21646;DHT22;10984;45.712;4.800;2023-01-24T04:18:02;2.70;99.90
21646;DHT22;10984;45.712;4.800;2023-01-24T04:20:29;2.80;99.90
21646;DHT22;10984;45.712;4.800;2023-01-24T04:22:55;2.80;99.90
21646;DHT22;10984;45.712;4.800;2023-01-24T04:25:22;2.80;99.90
21646;DHT22;10984;45.712;4.800;2023-01-24T04:27:48;2.70;99.90
21646;DHT22;10984;45.712;4.800;2023-01-24T04:30:15;2.80;99.90
21646;DHT22;10984;45.712;4.800;2023-01-24T04:32:41;2.80;99.90
21646;DHT22;10984;45.712;4.800;2023-01-24T04:35:08;2.90;99.90
21646;DHT22;10984;45.712;4.800;2023-01-24T04:37:34;2.80;99.90
21646;DHT22;10984;45.712;4.800;2023-01-24T04:40:00;2.80;99.90
21646;DHT22;10984;45.712;4.800;2023-01-24T04:42:28;2.90;99.90
21646;DHT22;10984;45.712;4.800;2023-01-24T04:44:54;2.90;99.90
21646;DHT22;10984;45.712;4.800;2023-01-24T04:47:19;2.90;99.90
21646;DHT22;10984;45.712;4.800;2023-01-24T04:49:45;2.80;99.90
21646;DHT22;10984;45.712;4.800;2023-01-24T04:52:12;2.80;99.90
21646;DHT22;10984;45.712;4.800;2023-01-24T04:54:56;2.80;99.90
21646;DHT22;10984;45.712;4.800;2023-01-24T04:57:22;2.80;99.90
21646;DHT22;10984;45.712;4.800;2023-01-24T04:59:48;2.80;99.90
21646;DHT22;10984;45.712;4.800;2023-01-24T05:02:14;2.80;99.90
21646;DHT22;10984;45.712;4.800;2023-01-24T05:04:39;2.70;99.90
21646;DHT22;10984;45.712;4.800;2023-01-24T05:07:05;2.70;99.90
21646;DHT22;10984;45.712;4.800;2023-01-24T05:09:31;2.70;99.90
21646;DHT22;10984;45.712;4.800;2023-01-24T05:11:56;2.70;99.90
21646;DHT22;10984;45.712;4.800;2023-01-24T05:14:22;2.70;99.90
21646;DHT22;10984;45.712;4.800;2023-01-24T05:16:48;2.70;99.90
21646;DHT22;10984;45.712;4.800;2023-01-24T05:19:13;2.70;99.90
21646;DHT22;10984;45.712;4.800;2023-01-24T05:21:39;2.70;99.90
21646;DHT22;10984;45.712;4.800;2023-01-24T05:24:05;2.70;99.90
21646;DHT22;10984;45.712;4.800;2023-01-24T05:26:30;2.70;99.90
21646;DHT22;10984;45.712;4.800;2023-01-24T05:28:56;2.70;99.90
21646;DHT22;10984;45.712;4.800;2023-01-24T05:31:22;2.80;99.90
21646;DHT22;10984;45.712;4.800;2023-01-24T05:33:48;2.80;99.90
21646;DHT22;10984;45.712;4.800;2023-01-24T05:36:32;2.70;99.90
21646;DHT22;10984;45.712;4.800;2023-01-24T05:38:58;2.80;99.90
21646;DHT22;10984;45.712;4.800;2023-01-24T05:41:23;2.70;99.90
21646;DHT22;10984;45.712;4.800;2023-01-24T05:43:49;2.70;99.90
21646;DHT22;10984;45.712;4.800;2023-01-24T05:49:01;2.80;99.90
21646;DHT22;10984;45.712;4.800;2023-01-24T05:51:26;2.70;99.90
21646;DHT22;10984;45.712;4.800;2023-01-24T05:53:52;2.70;99.90
21646;DHT22;10984;45.712;4.800;2023-01-24T05:56:19;2.70;99.90
21646;DHT22;10984;45.712;4.800;2023-01-24T05:58:46;2.60;99.90
21646;DHT22;10984;45.712;4.800;2023-01-24T06:01:31;2.70;99.90
21646;DHT22;10984;45.712;4.800;2023-01-24T06:03:57;2.70;99.90
21646;DHT22;10984;45.712;4.800;2023-01-24T06:06:24;2.80;99.90
21646;DHT22;10984;45.712;4.800;2023-01-24T06:08:50;2.80;99.90
21646;DHT22;10984;45.712;4.800;2023-01-24T06:11:35;2.90;99.90
21646;DHT22;10984;45.712;4.800;2023-01-24T06:14:00;2.90;99.90
21646;DHT22;10984;45.712;4.800;2023-01-24T06:16:26;2.90;99.90
21646;DHT22;10984;45.712;4.800;2023-01-24T06:18:53;2.90;99.90
21646;DHT22;10984;45.712;4.800;2023-01-24T06:24:25;2.80;99.90
21646;DHT22;10984;45.712;4.800;2023-01-24T06:26:51;2.80;99.90
21646;DHT22;10984;45.712;4.800;2023-01-24T06:29:18;2.80;99.90
21646;DHT22;10984;45.712;4.800;2023-01-24T06:37:51;2.70;99.90
21646;DHT22;10984;45.712;4.800;2023-01-24T06:40:26;2.80;99.90
21646;DHT22;10984;45.712;4.800;2023-01-24T06:42:53;2.80;99.90
21646;DHT22;10984;45.712;4.800;2023-01-24T06:45:20;2.80;99.90
21646;DHT22;10984;45.712;4.800;2023-01-24T06:47:45;2.80;99.90
21646;DHT22;10984;45.712;4.800;2023-01-24T06:50:30;2.90;99.90
21646;DHT22;10984;45.712;4.800;2023-01-24T06:52:57;2.90;99.90
21646;DHT22;10984;45.712;4.800;2023-01-24T06:55:23;2.90;99.90
21646;DHT22;10984;45.712;4.800;2023-01-24T06:58:08;2.90;99.90
21646;DHT22;10984;45.712;4.800;2023-01-24T07:00:33;2.90;99.90
21646;DHT22;10984;45.712;4.800;2023-01-24T07:03:00;2.90;99.90
21646;DHT22;10984;45.712;4.800;2023-01-24T07:05:27;2.90;99.90
21646;DHT22;10984;45.712;4.800;2023-01-24T07:07:53;2.90;99.90
21646;DHT22;10984;45.712;4.800;2023-01-24T07:10:19;3.00;99.90
21646;DHT22;10984;45.712;4.800;2023-01-24T07:12:44;3.00;99.90
21646;DHT22;10984;45.712;4.800;2023-01-24T07:15:10;3.00;99.90
21646;DHT22;10984;45.712;4.800;2023-01-24T07:17:36;3.00;99.90
21646;DHT22;10984;45.712;4.800;2023-01-24T07:20:02;3.00;99.90
21646;DHT22;10984;45.712;4.800;2023-01-24T07:22:28;3.10;99.90
21646;DHT22;10984;45.712;4.800;2023-01-24T07:24:54;3.10;99.90
21646;DHT22;10984;45.712;4.800;2023-01-24T07:27:20;3.10;99.90
21646;DHT22;10984;45.712;4.800;2023-01-24T07:29:46;3.10;99.90
21646;DHT22;10984;45.712;4.800;2023-01-24T07:32:12;3.10;99.90
21646;DHT22;10984;45.712;4.800;2023-01-24T07:34:38;3.20;99.90
21646;DHT22;10984;45.712;4.800;2023-01-24T07:37:06;3.20;99.90
21646;DHT22;10984;45.712;4.800;2023-01-24T07:39:32;3.20;99.90
21646;DHT22;10984;45.712;4.800;2023-01-24T07:41:58;3.20;99.90
21646;DHT22;10984;45.712;4.800;2023-01-24T07:44:23;3.20;99.90
21646;DHT22;10984;45.712;4.800;2023-01-24T07:46:49;3.30;99.90
21646;DHT22;10984;45.712;4.800;2023-01-24T07:49:14;3.30;99.90
21646;DHT22;10984;45.712;4.800;2023-01-24T07:51:40;3.30;99.90
21646;DHT22;10984;45.712;4.800;2023-01-24T07:54:06;3.40;99.90
21646;DHT22;10984;45.712;4.800;2023-01-24T07:56:32;3.50;99.90
21646;DHT22;10984;45.712;4.800;2023-01-24T07:58:57;3.50;99.90
21646;DHT22;10984;45.712;4.800;2023-01-24T08:01:24;3.50;99.90
21646;DHT22;10984;45.712;4.800;2023-01-24T08:03:55;3.60;99.90
21646;DHT22;10984;45.712;4.800;2023-01-24T08:06:21;3.60;99.90
21646;DHT22;10984;45.712;4.800;2023-01-24T08:08:46;3.60;99.90
21646;DHT22;10984;45.712;4.800;2023-01-24T08:11:12;3.70;99.90
21646;DHT22;10984;45.712;4.800;2023-01-24T08:13:41;3.80;99.90
21646;DHT22;10984;45.712;4.800;2023-01-24T08:16:07;3.80;99.90
21646;DHT22;10984;45.712;4.800;2023-01-24T08:18:33;3.80;99.90
21646;DHT22;10984;45.712;4.800;2023-01-24T08:20:59;3.90;99.90
21646;DHT22;10984;45.712;4.800;2023-01-24T08:23:25;3.90;99.90
21646;DHT22;10984;45.712;4.800;2023-01-24T08:25:51;4.00;99.90
21646;DHT22;10984;45.712;4.800;2023-01-24T08:28:16;3.90;99.90
21646;DHT22;10984;45.712;4.800;2023-01-24T08:30:42;4.00;99.90
21646;DHT22;10984;45.712;4.800;2023-01-24T08:33:08;4.00;99.90
21646;DHT22;10984;45.712;4.800;2023-01-24T08:35:36;4.10;99.90
21646;DHT22;10984;45.712;4.800;2023-01-24T08:38:01;4.20;99.90
21646;DHT22;10984;45.712;4.800;2023-01-24T08:40:27;4.20;99.90
21646;DHT22;10984;45.712;4.800;2023-01-24T08:42:53;4.30;99.90
21646;DHT22;10984;45.712;4.800;2023-01-24T08:45:18;4.40;99.90
21646;DHT22;10984;45.712;4.800;2023-01-24T08:47:44;4.40;99.90
21646;DHT22;10984;45.712;4.800;2023-01-24T08:50:10;4.40;99.90
21646;DHT22;10984;45.712;4.800;2023-01-24T08:52:36;4.40;99.90
21646;DHT22;10984;45.712;4.800;2023-01-24T08:55:01;4.50;99.90
21646;DHT22;10984;45.712;4.800;2023-01-24T08:57:27;4.50;99.90
21646;DHT22;10984;45.712;4.800;2023-01-24T08:59:53;4.60;99.90
21646;DHT22;10984;45.712;4.800;2023-01-24T09:02:18;4.70;99.90
21646;DHT22;10984;45.712;4.800;2023-01-24T09:04:44;4.70;99.90
21646;DHT22;10984;45.712;4.800;2023-01-24T09:07:11;4.80;99.90
21646;DHT22;10984;45.712;4.800;2023-01-24T09:09:37;4.70;99.90
21646;DHT22;10984;45.712;4.800;2023-01-24T09:12:03;4.80;99.90
21646;DHT22;10984;45.712;4.800;2023-01-24T09:14:28;4.90;99.90
21646;DHT22;10984;45.712;4.800;2023-01-24T09:16:54;4.90;99.90
21646;DHT22;10984;45.712;4.800;2023-01-24T09:19:20;5.10;99.90
21646;DHT22;10984;45.712;4.800;2023-01-24T09:21:45;5.00;99.90
21646;DHT22;10984;45.712;4.800;2023-01-24T09:24:16;5.10;99.90
21646;DHT22;10984;45.712;4.800;2023-01-24T09:26:43;5.20;99.90
21646;DHT22;10984;45.712;4.800;2023-01-24T09:29:09;5.30;99.90
21646;DHT22;10984;45.712;4.800;2023-01-24T09:31:35;5.30;99.90
21646;DHT22;10984;45.712;4.800;2023-01-24T09:34:00;5.30;99.90
21646;DHT22;10984;45.712;4.800;2023-01-24T09:36:26;5.30;99.90
21646;DHT22;10984;45.712;4.800;2023-01-24T09:38:53;5.40;99.90
21646;DHT22;10984;45.712;4.800;2023-01-24T09:44:09;5.40;99.90
21646;DHT22;10984;45.712;4.800;2023-01-24T09:49:42;5.60;99.90
21646;DHT22;10984;45.712;4.800;2023-01-24T09:52:16;5.40;99.90
21646;DHT22;10984;45.712;4.800;2023-01-24T10:01:02;5.70;99.90
21646;DHT22;10984;45.712;4.800;2023-01-24T10:03:31;5.70;99.90
21646;DHT22;10984;45.712;4.800;2023-01-24T10:06:00;5.60;99.90
21646;DHT22;10984;45.712;4.800;2023-01-24T10:23:52;5.60;99.90
21646;DHT22;10984;45.712;4.800;2023-01-24T10:26:41;5.60;99.90
21646;DHT22;10984;45.712;4.800;2023-01-24T10:32:16;5.40;99.90
21646;DHT22;10984;45.712;4.800;2023-01-24T10:34:47;5.30;99.90
21646;DHT22;10984;45.712;4.800;2023-01-24T10:37:22;5.30;99.90
21646;DHT22;10984;45.712;4.800;2023-01-24T10:39:49;5.20;99.90
21646;DHT22;10984;45.712;4.800;2023-01-24T10:45:03;5.30;99.90
21646;DHT22;10984;45.712;4.800;2023-01-24T10:47:55;5.40;99.90
21646;DHT22;10984;45.712;4.800;2023-01-24T10:53:35;5.40;99.90
21646;DHT22;10984;45.712;4.800;2023-01-24T10:56:03;5.60;99.90
21646;DHT22;10984;45.712;4.800;2023-01-24T11:01:51;5.70;99.90
21646;DHT22;10984;45.712;4.800;2023-01-24T11:04:35;5.70;99.90
21646;DHT22;10984;45.712;4.800;2023-01-24T11:07:01;5.80;99.90
21646;DHT22;10984;45.712;4.800;2023-01-24T11:09:45;5.80;99.90
21646;DHT22;10984;45.712;4.800;2023-01-24T11:12:13;5.80;99.90
21646;DHT22;10984;45.712;4.800;2023-01-24T11:14:39;5.90;99.90
21646;DHT22;10984;45.712;4.800;2023-01-24T11:20:24;6.00;99.90
21646;DHT22;10984;45.712;4.800;2023-01-24T11:22:51;5.90;99.90
21646;DHT22;10984;45.712;4.800;2023-01-24T11:25:17;5.90;99.90
21646;DHT22;10984;45.712;4.800;2023-01-24T11:28:01;6.00;99.90
21646;DHT22;10984;45.712;4.800;2023-01-24T11:30:27;6.00;99.90
21646;DHT22;10984;45.712;4.800;2023-01-24T11:33:02;5.90;99.90
21646;DHT22;10984;45.712;4.800;2023-01-24T11:35:34;5.80;99.90
21646;DHT22;10984;45.712;4.800;2023-01-24T12:13:43;5.80;99.90
21646;DHT22;10984;45.712;4.800;2023-01-24T12:21:48;5.80;99.90
21646;DHT22;10984;45.712;4.800;2023-01-24T12:24:35;5.80;99.90
21646;DHT22;10984;45.712;4.800;2023-01-24T12:27:06;5.90;99.90
21646;DHT22;10984;45.712;4.800;2023-01-24T12:32:23;6.00;99.90
21646;DHT22;10984;45.712;4.800;2023-01-24T12:44:04;6.50;99.90
21646;DHT22;10984;45.712;4.800;2023-01-24T12:58:35;6.60;99.90
21646;DHT22;10984;45.712;4.800;2023-01-24T13:12:29;6.40;99.90
21646;DHT22;10984;45.712;4.800;2023-01-24T13:21:24;6.10;99.90
21646;DHT22;10984;45.712;4.800;2023-01-24T13:32:26;6.00;99.90
21646;DHT22;10984;45.712;4.800;2023-01-24T13:34:55;6.00;99.90
21646;DHT22;10984;45.712;4.800;2023-01-24T13:37:28;5.90;99.90
21646;DHT22;10984;45.712;4.800;2023-01-24T13:42:39;5.90;99.90
21646;DHT22;10984;45.712;4.800;2023-01-24T13:51:31;5.80;99.90
21646;DHT22;10984;45.712;4.800;2023-01-24T13:54:17;5.70;99.90
21646;DHT22;10984;45.712;4.800;2023-01-24T14:05:35;5.80;99.90
21646;DHT22;10984;45.712;4.800;2023-01-24T14:11:17;5.70;99.90
21646;DHT22;10984;45.712;4.800;2023-01-24T14:13:54;5.70;99.90
21646;DHT22;10984;45.712;4.800;2023-01-24T14:19:25;5.70;99.90
21646;DHT22;10984;45.712;4.800;2023-01-24T14:24:59;5.70;99.90
21646;DHT22;10984;45.712;4.800;2023-01-24T14:27:52;5.80;99.90
21646;DHT22;10984;45.712;4.800;2023-01-24T14:41:57;5.70;99.90
21646;DHT22;10984;45.712;4.800;2023-01-24T14:47:26;5.60;99.90
21646;DHT22;10984;45.712;4.800;2023-01-24T14:50:31;5.60;99.90
21646;DHT22;10984;45.712;4.800;2023-01-24T14:52:59;5.60;99.90
21646;DHT22;10984;45.712;4.800;2023-01-24T14:55:43;5.60;99.90
21646;DHT22;10984;45.712;4.800;2023-01-24T14:58:28;5.60;99.90
21646;DHT22;10984;45.712;4.800;2023-01-24T15:00:56;5.60;99.90
21646;DHT22;10984;45.712;4.800;2023-01-24T15:03:40;5.50;99.90
21646;DHT22;10984;45.712;4.800;2023-01-24T15:06:17;5.50;99.90
21646;DHT22;10984;45.712;4.800;2023-01-24T15:08:42;5.40;99.90
21646;DHT22;10984;45.712;4.800;2023-01-24T15:11:19;5.40;99.90
21646;DHT22;10984;45.712;4.800;2023-01-24T15:13:51;5.40;99.90
21646;DHT22;10984;45.712;4.800;2023-01-24T15:16:29;5.40;99.90
21646;DHT22;10984;45.712;4.800;2023-01-24T15:22:00;5.40;99.90
21646;DHT22;10984;45.712;4.800;2023-01-24T15:24:28;5.30;99.90
21646;DHT22;10984;45.712;4.800;2023-01-24T15:26:55;5.30;99.90
21646;DHT22;10984;45.712;4.800;2023-01-24T15:32:44;5.30;99.90
21646;DHT22;10984;45.712;4.800;2023-01-24T15:44:12;5.20;99.90
21646;DHT22;10984;45.712;4.800;2023-01-24T15:46:43;5.20;99.90
21646;DHT22;10984;45.712;4.800;2023-01-24T15:56:21;5.20;99.90
21646;DHT22;10984;45.712;4.800;2023-01-24T15:58:48;5.10;99.90
21646;DHT22;10984;45.712;4.800;2023-01-24T16:01:15;5.10;99.90
21646;DHT22;10984;45.712;4.800;2023-01-24T16:03:41;5.10;99.90
21646;DHT22;10984;45.712;4.800;2023-01-24T16:06:06;5.10;99.90
21646;DHT22;10984;45.712;4.800;2023-01-24T16:08:32;5.00;99.90
21646;DHT22;10984;45.712;4.800;2023-01-24T16:10:59;5.00;99.90
21646;DHT22;10984;45.712;4.800;2023-01-24T16:13:28;4.90;99.90
21646;DHT22;10984;45.712;4.800;2023-01-24T16:15:56;4.90;99.90
21646;DHT22;10984;45.712;4.800;2023-01-24T16:18:22;4.90;99.90
21646;DHT22;10984;45.712;4.800;2023-01-24T16:20:47;5.00;99.90
21646;DHT22;10984;45.712;4.800;2023-01-24T16:23:13;5.00;99.90
21646;DHT22;10984;45.712;4.800;2023-01-24T16:25:39;4.90;99.90
21646;DHT22;10984;45.712;4.800;2023-01-24T16:28:05;4.90;99.90
21646;DHT22;10984;45.712;4.800;2023-01-24T16:30:30;4.80;99.90
21646;DHT22;10984;45.712;4.800;2023-01-24T16:32:56;4.80;99.90
21646;DHT22;10984;45.712;4.800;2023-01-24T16:35:22;4.80;99.90
21646;DHT22;10984;45.712;4.800;2023-01-24T16:37:48;4.80;99.90
21646;DHT22;10984;45.712;4.800;2023-01-24T16:40:16;4.70;99.90
21646;DHT22;10984;45.712;4.800;2023-01-24T16:42:45;4.80;99.90
21646;DHT22;10984;45.712;4.800;2023-01-24T16:45:29;4.80;99.90
21646;DHT22;10984;45.712;4.800;2023-01-24T16:47:55;4.70;99.90
21646;DHT22;10984;45.712;4.800;2023-01-24T16:50:21;4.70;99.90
21646;DHT22;10984;45.712;4.800;2023-01-24T16:52:47;4.70;99.90
21646;DHT22;10984;45.712;4.800;2023-01-24T16:55:13;4.80;99.90
21646;DHT22;10984;45.712;4.800;2023-01-24T16:57:39;4.70;99.90
21646;DHT22;10984;45.712;4.800;2023-01-24T17:00:06;4.70;99.90
21646;DHT22;10984;45.712;4.800;2023-01-24T17:02:37;4.70;99.90
21646;DHT22;10984;45.712;4.800;2023-01-24T17:05:03;4.70;99.90
21646;DHT22;10984;45.712;4.800;2023-01-24T17:07:29;4.70;99.90
21646;DHT22;10984;45.712;4.800;2023-01-24T17:09:54;4.70;99.90
21646;DHT22;10984;45.712;4.800;2023-01-24T17:12:20;4.70;99.90
21646;DHT22;10984;45.712;4.800;2023-01-24T17:14:45;4.60;99.90
21646;DHT22;10984;45.712;4.800;2023-01-24T17:17:11;4.60;99.90
21646;DHT22;10984;45.712;4.800;2023-01-24T17:19:37;4.60;99.90
21646;DHT22;10984;45.712;4.800;2023-01-24T17:22:03;4.60;99.90
21646;DHT22;10984;45.712;4.800;2023-01-24T17:24:29;4.60;99.90
21646;DHT22;10984;45.712;4.800;2023-01-24T17:26:55;4.60;99.90
21646;DHT22;10984;45.712;4.800;2023-01-24T17:29:20;4.70;99.90
21646;DHT22;10984;45.712;4.800;2023-01-24T17:31:51;4.70;99.90
21646;DHT22;10984;45.712;4.800;2023-01-24T17:34:17;4.60;99.90
21646;DHT22;10984;45.712;4.800;2023-01-24T17:36:42;4.60;99.90
21646;DHT22;10984;45.712;4.800;2023-01-24T17:39:08;4.60;99.90
21646;DHT22;10984;45.712;4.800;2023-01-24T17:41:34;4.60;99.90
21646;DHT22;10984;45.712;4.800;2023-01-24T17:44:00;4.60;99.90
21646;DHT22;10984;45.712;4.800;2023-01-24T17:46:25;4.60;99.90
21646;DHT22;10984;45.712;4.800;2023-01-24T17:48:51;4.50;99.90
21646;DHT22;10984;45.712;4.800;2023-01-24T17:51:17;4.50;99.90
21646;DHT22;10984;45.712;4.800;2023-01-24T17:53:44;4.50;99.90
21646;DHT22;10984;45.712;4.800;2023-01-24T17:56:10;4.50;99.90
21646;DHT22;10984;45.712;4.800;2023-01-24T17:58:37;4.60;99.90
21646;DHT22;10984;45.712;4.800;2023-01-24T18:01:03;4.50;99.90
21646;DHT22;10984;45.712;4.800;2023-01-24T18:03:29;4.50;99.90
21646;DHT22;10984;45.712;4.800;2023-01-24T18:05:55;4.50;99.90
21646;DHT22;10984;45.712;4.800;2023-01-24T18:08:21;4.50;99.90
21646;DHT22;10984;45.712;4.800;2023-01-24T18:10:48;4.50;99.90
21646;DHT22;10984;45.712;4.800;2023-01-24T18:13:14;4.50;99.90
21646;DHT22;10984;45.712;4.800;2023-01-24T18:15:39;4.50;99.90
21646;DHT22;10984;45.712;4.800;2023-01-24T18:18:05;4.50;99.90
21646;DHT22;10984;45.712;4.800;2023-01-24T18:20:32;4.50;99.90
21646;DHT22;10984;45.712;4.800;2023-01-24T18:22:57;4.50;99.90
21646;DHT22;10984;45.712;4.800;2023-01-24T18:25:23;4.50;99.90
21646;DHT22;10984;45.712;4.800;2023-01-24T18:27:48;4.40;99.90
21646;DHT22;10984;45.712;4.800;2023-01-24T18:30:15;4.40;99.90
21646;DHT22;10984;45.712;4.800;2023-01-24T18:32:41;4.40;99.90
21646;DHT22;10984;45.712;4.800;2023-01-24T18:35:07;4.40;99.90
21646;DHT22;10984;45.712;4.800;2023-01-24T18:37:33;4.30;99.90
21646;DHT22;10984;45.712;4.800;2023-01-24T18:39:59;4.40;99.90
21646;DHT22;10984;45.712;4.800;2023-01-24T18:42:24;4.30;99.90
21646;DHT22;10984;45.712;4.800;2023-01-24T18:44:50;4.40;99.90
21646;DHT22;10984;45.712;4.800;2023-01-24T18:47:16;4.40;99.90
21646;DHT22;10984;45.712;4.800;2023-01-24T18:49:43;4.40;99.90
21646;DHT22;10984;45.712;4.800;2023-01-24T18:52:09;4.40;99.90
21646;DHT22;10984;45.712;4.800;2023-01-24T18:54:34;4.40;99.90
21646;DHT22;10984;45.712;4.800;2023-01-24T18:57:03;4.40;99.90
21646;DHT22;10984;45.712;4.800;2023-01-24T18:59:29;4.40;99.90
21646;DHT22;10984;45.712;4.800;2023-01-24T19:01:55;4.30;99.90
21646;DHT22;10984;45.712;4.800;2023-01-24T19:04:22;4.40;99.90
21646;DHT22;10984;45.712;4.800;2023-01-24T19:06:48;4.40;99.90
21646;DHT22;10984;45.712;4.800;2023-01-24T19:09:14;4.40;99.90
21646;DHT22;10984;45.712;4.800;2023-01-24T19:11:39;4.40;99.90
21646;DHT22;10984;45.712;4.800;2023-01-24T19:14:06;4.40;99.90
21646;DHT22;10984;45.712;4.800;2023-01-24T19:16:51;4.40;99.90
21646;DHT22;10984;45.712;4.800;2023-01-24T19:19:18;4.30;99.90
21646;DHT22;10984;45.712;4.800;2023-01-24T19:21:44;4.40;99.90
21646;DHT22;10984;45.712;4.800;2023-01-24T19:24:11;4.30;99.90
21646;DHT22;10984;45.712;4.800;2023-01-24T19:26:37;4.30;99.90
21646;DHT22;10984;45.712;4.800;2023-01-24T19:29:03;4.30;99.90
21646;DHT22;10984;45.712;4.800;2023-01-24T19:31:29;4.30;99.90
21646;DHT22;10984;45.712;4.800;2023-01-24T19:33:57;4.40;99.90
21646;DHT22;10984;45.712;4.800;2023-01-24T19:36:23;4.40;99.90
21646;DHT22;10984;45.712;4.800;2023-01-24T19:38:53;4.40;99.90